sensor_id;sensor_type;location;lat;lon;timestamp;pressure;altitude;pressure_sealevel;temperature;humidity
34500;BME280;20745;50.882;6.962;2022-12-29T00:01:09;99833.09;;;11.93;100.00
34500;BME280;20745;50.882;6.962;2022-12-29T00:03:36;99829.56;;;11.92;100.00
34500;BME280;20745;50.882;6.962;2022-12-29T00:06:03;99832.25;;;11.92;100.00
34500;BME280;20745;50.882;6.962;2022-12-29T00:08:29;99821.44;;;11.92;100.00
34500;BME280;20745;50.882;6.962;2022-12-29T00:11:15;99807.31;;;11.90;100.00
34500;BME280;20745;50.882;6.962;2022-12-29T00:13:41;99810.81;;;11.91;100.00
34500;BME280;20745;50.882;6.962;2022-12-29T00:16:26;99812.50;;;11.92;100.00
34500;BME280;20745;50.882;6.962;2022-12-29T00:18:53;99815.00;;;11.93;100.00
34500;BME280;20745;50.882;6.962;2022-12-29T00:21:20;99809.59;;;11.93;100.00
34500;BME280;20745;50.882;6.962;2022-12-29T00:24:06;99808.13;;;11.97;100.00
34500;BME280;20745;50.882;6.962;2022-12-29T00:29:48;99798.31;;;12.03;100.00
34500;BME280;20745;50.882;6.962;2022-12-29T00:32:33;99797.25;;;12.04;100.00
34500;BME280;20745;50.882;6.962;2022-12-29T00:35:23;99785.00;;;12.08;100.00
34500;BME280;20745;50.882;6.962;2022-12-29T00:37:51;99785.00;;;12.08;100.00
34500;BME280;20745;50.882;6.962;2022-12-29T00:40:37;99760.88;;;11.93;100.00
34500;BME280;20745;50.882;6.962;2022-12-29T00:43:22;99787.47;;;12.09;100.00
34500;BME280;20745;50.882;6.962;2022-12-29T00:46:06;99784.31;;;12.12;100.00
34500;BME280;20745;50.882;6.962;2022-12-29T00:48:33;99777.66;;;12.15;100.00
34500;BME280;20745;50.882;6.962;2022-12-29T00:51:18;99789.28;;;12.22;100.00
34500;BME280;20745;50.882;6.962;2022-12-29T00:53:44;99767.22;;;12.25;100.00
34500;BME280;20745;50.882;6.962;2022-12-29T00:56:11;99785.09;;;12.26;100.00
34500;BME280;20745;50.882;6.962;2022-12-29T00:58:37;99787.81;;;12.26;100.00
34500;BME280;20745;50.882;6.962;2022-12-29T01:01:07;99791.16;;;12.28;100.00
34500;BME280;20745;50.882;6.962;2022-12-29T01:03:35;99786.34;;;12.30;100.00
34500;BME280;20745;50.882;6.962;2022-12-29T01:06:02;99773.00;;;12.28;100.00
34500;BME280;20745;50.882;6.962;2022-12-29T01:08:29;99774.69;;;12.29;100.00
34500;BME280;20745;50.882;6.962;2022-12-29T01:11:14;99776.78;;;12.27;100.00
34500;BME280;20745;50.882;6.962;2022-12-29T01:13:40;99776.56;;;12.29;100.00
34500;BME280;20745;50.882;6.962;2022-12-29T01:16:08;99783.84;;;12.28;100.00
34500;BME280;20745;50.882;6.962;2022-12-29T01:18:34;99786.97;;;12.25;100.00
34500;BME280;20745;50.882;6.962;2022-12-29T01:21:02;99781.56;;;12.25;100.00
34500;BME280;20745;50.882;6.962;2022-12-29T01:23:28;99774.28;;;12.26;100.00
34500;BME280;20745;50.882;6.962;2022-12-29T01:25:55;99780.53;;;12.26;100.00
34500;BME280;20745;50.882;6.962;2022-12-29T01:28:22;99777.19;;;12.31;100.00
34500;BME280;20745;50.882;6.962;2022-12-29T01:30:51;99767.38;;;12.37;100.00
34500;BME280;20745;50.882;6.962;2022-12-29T01:33:17;99773.78;;;12.42;100.00
34500;BME280;20745;50.882;6.962;2022-12-29T01:35:43;99775.44;;;12.43;100.00
34500;BME280;20745;50.882;6.962;2022-12-29T01:38:10;99769.44;;;12.41;100.00
34500;BME280;20745;50.882;6.962;2022-12-29T01:40:42;99780.84;;;12.43;100.00
34500;BME280;20745;50.882;6.962;2022-12-29T01:43:10;99771.69;;;12.44;100.00
34500;BME280;20745;50.882;6.962;2022-12-29T01:45:36;99774.78;;;12.48;100.00
34500;BME280;20745;50.882;6.962;2022-12-29T01:48:03;99770.59;;;12.52;100.00
34500;BME280;20745;50.882;6.962;2022-12-29T01:50:50;99763.91;;;12.54;100.00
34500;BME280;20745;50.882;6.962;2022-12-29T01:53:18;99764.31;;;12.58;100.00
34500;BME280;20745;50.882;6.962;2022-12-29T01:55:50;99776.00;;;12.58;100.00
34500;BME280;20745;50.882;6.962;2022-12-29T01:58:18;99761.63;;;12.58;100.00
34500;BME280;20745;50.882;6.962;2022-12-29T02:00:46;99756.19;;;12.58;100.00
34500;BME280;20745;50.882;6.962;2022-12-29T02:03:12;99748.06;;;12.58;100.00
34500;BME280;20745;50.882;6.962;2022-12-29T02:05:42;99734.97;;;12.55;100.00
34500;BME280;20745;50.882;6.962;2022-12-29T02:08:11;99729.97;;;12.52;100.00
34500;BME280;20745;50.882;6.962;2022-12-29T02:10:37;99710.75;;;12.28;100.00
34500;BME280;20745;50.882;6.962;2022-12-29T02:13:05;99745.66;;;12.43;100.00
34500;BME280;20745;50.882;6.962;2022-12-29T02:20:37;99743.81;;;12.37;100.00
34500;BME280;20745;50.882;6.962;2022-12-29T02:44:22;99725.22;;;12.47;100.00
34500;BME280;20745;50.882;6.962;2022-12-29T02:46:57;99736.88;;;12.48;100.00
34500;BME280;20745;50.882;6.962;2022-12-29T02:49:31;99729.81;;;12.47;100.00
34500;BME280;20745;50.882;6.962;2022-12-29T02:52:22;99729.81;;;12.47;100.00
34500;BME280;20745;50.882;6.962;2022-12-29T02:54:50;99726.06;;;12.48;100.00
34500;BME280;20745;50.882;6.962;2022-12-29T02:59:52;99727.69;;;12.49;100.00
34500;BME280;20745;50.882;6.962;2022-12-29T03:02:29;99722.50;;;12.47;100.00
34500;BME280;20745;50.882;6.962;2022-12-29T03:05:05;99719.78;;;12.47;100.00
34500;BME280;20745;50.882;6.962;2022-12-29T03:10:24;99706.47;;;12.46;100.00
34500;BME280;20745;50.882;6.962;2022-12-29T03:13:35;99713.34;;;12.48;100.00
34500;BME280;20745;50.882;6.962;2022-12-29T03:16:07;99708.97;;;12.47;100.00
34500;BME280;20745;50.882;6.962;2022-12-29T03:18:40;99698.97;;;12.48;100.00
34500;BME280;20745;50.882;6.962;2022-12-29T03:23:43;99689.78;;;12.49;100.00
34500;BME280;20745;50.882;6.962;2022-12-29T03:26:14;99686.06;;;12.50;100.00
34500;BME280;20745;50.882;6.962;2022-12-29T03:28:47;99682.72;;;12.48;100.00
34500;BME280;20745;50.882;6.962;2022-12-29T03:31:16;99676.47;;;12.47;100.00
34500;BME280;20745;50.882;6.962;2022-12-29T03:33:43;99675.22;;;12.50;100.00
34500;BME280;20745;50.882;6.962;2022-12-29T03:36:12;99656.47;;;12.48;100.00
34500;BME280;20745;50.882;6.962;2022-12-29T03:38:42;99681.88;;;12.47;100.00
34500;BME280;20745;50.882;6.962;2022-12-29T03:41:11;99675.66;;;12.47;100.00
34500;BME280;20745;50.882;6.962;2022-12-29T03:43:39;99674.81;;;12.46;100.00
34500;BME280;20745;50.882;6.962;2022-12-29T03:46:06;99684.81;;;12.46;100.00
34500;BME280;20745;50.882;6.962;2022-12-29T03:48:32;99679.59;;;12.44;100.00
34500;BME280;20745;50.882;6.962;2022-12-29T03:50:59;99667.75;;;12.45;100.00
34500;BME280;20745;50.882;6.962;2022-12-29T03:53:26;99653.00;;;12.41;100.00
34500;BME280;20745;50.882;6.962;2022-12-29T03:55:52;99656.56;;;12.35;100.00
34500;BME280;20745;50.882;6.962;2022-12-29T03:58:18;99651.19;;;12.28;100.00
34500;BME280;20745;50.882;6.962;2022-12-29T04:00:44;99651.63;;;12.25;100.00
34500;BME280;20745;50.882;6.962;2022-12-29T04:03:11;99648.09;;;12.25;100.00
34500;BME280;20745;50.882;6.962;2022-12-29T04:05:37;99641.22;;;12.22;100.00
34500;BME280;20745;50.882;6.962;2022-12-29T04:08:04;99639.56;;;12.21;100.00
34500;BME280;20745;50.882;6.962;2022-12-29T04:10:30;99642.06;;;12.23;100.00
34500;BME280;20745;50.882;6.962;2022-12-29T04:12:56;99639.56;;;12.21;100.00
34500;BME280;20745;50.882;6.962;2022-12-29T04:15:22;99641.22;;;12.22;100.00
34500;BME280;20745;50.882;6.962;2022-12-29T04:17:50;99639.56;;;12.21;100.00
34500;BME280;20745;50.882;6.962;2022-12-29T04:20:16;99636.69;;;12.16;100.00
34500;BME280;20745;50.882;6.962;2022-12-29T04:23:02;99627.97;;;12.14;100.00
34500;BME280;20745;50.882;6.962;2022-12-29T04:25:28;99642.13;;;12.16;100.00
34500;BME280;20745;50.882;6.962;2022-12-29T04:27:56;99626.31;;;12.13;100.00
34500;BME280;20745;50.882;6.962;2022-12-29T04:30:22;99617.19;;;12.08;100.00
34500;BME280;20745;50.882;6.962;2022-12-29T04:32:49;99607.59;;;12.05;100.00
34500;BME280;20745;50.882;6.962;2022-12-29T04:35:15;99610.94;;;12.07;100.00
34500;BME280;20745;50.882;6.962;2022-12-29T04:37:43;99596.56;;;12.07;100.00
34500;BME280;20745;50.882;6.962;2022-12-29T04:40:10;99609.44;;;12.11;100.00
34500;BME280;20745;50.882;6.962;2022-12-29T04:42:36;99622.75;;;12.13;100.00
34500;BME280;20745;50.882;6.962;2022-12-29T04:45:03;99622.13;;;12.17;100.00
34500;BME280;20745;50.882;6.962;2022-12-29T04:47:29;99627.03;;;12.27;100.00
34500;BME280;20745;50.882;6.962;2022-12-29T04:49:56;99642.19;;;12.34;100.00
34500;BME280;20745;50.882;6.962;2022-12-29T04:52:22;99639.06;;;12.38;100.00
34500;BME280;20745;50.882;6.962;2022-12-29T04:54:49;99643.41;;;12.38;100.00
34500;BME280;20745;50.882;6.962;2022-12-29T04:57:15;99647.16;;;12.38;100.00
34500;BME280;20745;50.882;6.962;2022-12-29T04:59:41;99658.00;;;12.38;100.00
34500;BME280;20745;50.882;6.962;2022-12-29T05:02:08;99651.97;;;12.35;100.00
34500;BME280;20745;50.882;6.962;2022-12-29T05:04:34;99639.25;;;12.36;100.00
34500;BME280;20745;50.882;6.962;2022-12-29T05:07:01;99631.34;;;12.34;100.00
34500;BME280;20745;50.882;6.962;2022-12-29T05:09:27;99628.88;;;12.33;100.00
34500;BME280;20745;50.882;6.962;2022-12-29T05:11:53;99633.69;;;12.31;100.00
34500;BME280;20745;50.882;6.962;2022-12-29T05:14:20;99632.84;;;12.30;100.00
34500;BME280;20745;50.882;6.962;2022-12-29T05:16:46;99639.53;;;12.28;100.00
34500;BME280;20745;50.882;6.962;2022-12-29T05:19:12;99645.75;;;12.28;100.00
34500;BME280;20745;50.882;6.962;2022-12-29T05:21:39;99655.78;;;12.28;100.00
34500;BME280;20745;50.882;6.962;2022-12-29T05:24:06;99652.44;;;12.26;100.00
34500;BME280;20745;50.882;6.962;2022-12-29T05:26:32;99674.09;;;12.26;100.00
34500;BME280;20745;50.882;6.962;2022-12-29T05:28:59;99675.16;;;12.25;100.00
34500;BME280;20745;50.882;6.962;2022-12-29T05:31:26;99678.91;;;12.24;100.00
34500;BME280;20745;50.882;6.962;2022-12-29T05:33:52;99678.31;;;12.22;100.00
34500;BME280;20745;50.882;6.962;2022-12-29T05:36:18;99679.59;;;12.19;100.00
34500;BME280;20745;50.882;6.962;2022-12-29T05:38:45;99674.16;;;12.19;100.00
34500;BME280;20745;50.882;6.962;2022-12-29T05:41:11;99677.31;;;12.16;100.00
34500;BME280;20745;50.882;6.962;2022-12-29T05:43:37;99657.09;;;12.19;100.00
34500;BME280;20745;50.882;6.962;2022-12-29T05:46:04;99674.09;;;12.26;100.00
34500;BME280;20745;50.882;6.962;2022-12-29T05:48:30;99683.88;;;12.27;100.00
34500;BME280;20745;50.882;6.962;2022-12-29T05:51:03;99672.41;;;12.31;100.00
34500;BME280;20745;50.882;6.962;2022-12-29T05:53:30;99686.94;;;12.37;100.00
34500;BME280;20745;50.882;6.962;2022-12-29T05:55:56;99683.59;;;12.42;100.00
34500;BME280;20745;50.882;6.962;2022-12-29T05:58:22;99703.75;;;12.46;100.00
34500;BME280;20745;50.882;6.962;2022-12-29T06:00:49;99700.84;;;12.47;100.00
34500;BME280;20745;50.882;6.962;2022-12-29T06:03:15;99695.63;;;12.46;100.00
34500;BME280;20745;50.882;6.962;2022-12-29T06:05:42;99693.56;;;12.48;100.00
34500;BME280;20745;50.882;6.962;2022-12-29T06:08:10;99681.06;;;12.47;100.00
34500;BME280;20745;50.882;6.962;2022-12-29T06:10:36;99689.78;;;12.49;100.00
34500;BME280;20745;50.882;6.962;2022-12-29T06:13:02;99690.00;;;12.47;100.00
34500;BME280;20745;50.882;6.962;2022-12-29T06:15:32;99682.09;;;12.46;100.00
34500;BME280;20745;50.882;6.962;2022-12-29T06:17:59;99704.38;;;12.48;100.00
34500;BME280;20745;50.882;6.962;2022-12-29T06:20:25;99703.31;;;12.49;100.00
34500;BME280;20745;50.882;6.962;2022-12-29T06:22:51;99693.13;;;12.51;100.00
34500;BME280;20745;50.882;6.962;2022-12-29T06:25:18;99692.06;;;12.52;100.00
34500;BME280;20745;50.882;6.962;2022-12-29T06:27:44;99693.13;;;12.51;100.00
34500;BME280;20745;50.882;6.962;2022-12-29T06:30:11;99692.28;;;12.50;100.00
34500;BME280;20745;50.882;6.962;2022-12-29T06:32:38;99674.59;;;12.48;100.00
34500;BME280;20745;50.882;6.962;2022-12-29T06:35:04;99650.59;;;12.26;100.00
34500;BME280;20745;50.882;6.962;2022-12-29T06:37:32;99690.22;;;12.46;100.00
34500;BME280;20745;50.882;6.962;2022-12-29T06:39:58;99691.72;;;12.42;100.00
34500;BME280;20745;50.882;6.962;2022-12-29T06:42:25;99694.41;;;12.42;100.00
34500;BME280;20745;50.882;6.962;2022-12-29T06:44:51;99700.25;;;12.38;100.00
34500;BME280;20745;50.882;6.962;2022-12-29T06:47:18;99698.63;;;12.38;100.00
34500;BME280;20745;50.882;6.962;2022-12-29T06:49:44;99702.16;;;12.38;100.00
34500;BME280;20745;50.882;6.962;2022-12-29T06:52:11;99700.88;;;12.41;100.00
34500;BME280;20745;50.882;6.962;2022-12-29T06:54:38;99706.09;;;12.42;100.00
34500;BME280;20745;50.882;6.962;2022-12-29T06:57:04;99712.31;;;12.43;100.00
34500;BME280;20745;50.882;6.962;2022-12-29T06:59:31;99708.16;;;12.47;100.00
34500;BME280;20745;50.882;6.962;2022-12-29T07:01:57;99722.50;;;12.47;100.00
34500;BME280;20745;50.882;6.962;2022-12-29T07:04:24;99717.72;;;12.49;100.00
34500;BME280;20745;50.882;6.962;2022-12-29T07:06:50;99715.22;;;12.48;100.00
34500;BME280;20745;50.882;6.962;2022-12-29T07:09:16;99703.53;;;12.47;100.00
34500;BME280;20745;50.882;6.962;2022-12-29T07:11:43;99711.88;;;12.46;100.00
34500;BME280;20745;50.882;6.962;2022-12-29T07:14:10;99722.72;;;12.46;100.00
34500;BME280;20745;50.882;6.962;2022-12-29T07:16:36;99727.97;;;12.41;100.00
34500;BME280;20745;50.882;6.962;2022-12-29T07:19:03;99738.81;;;12.41;100.00
34500;BME280;20745;50.882;6.962;2022-12-29T07:21:29;99736.53;;;12.38;100.00
34500;BME280;20745;50.882;6.962;2022-12-29T07:23:56;99740.72;;;12.33;100.00
34500;BME280;20745;50.882;6.962;2022-12-29T07:26:22;99743.63;;;12.32;100.00
34500;BME280;20745;50.882;6.962;2022-12-29T07:28:48;99757.41;;;12.30;100.00
34500;BME280;20745;50.882;6.962;2022-12-29T07:31:15;99762.59;;;12.32;100.00
34500;BME280;20745;50.882;6.962;2022-12-29T07:33:43;99765.50;;;12.30;100.00
34500;BME280;20745;50.882;6.962;2022-12-29T07:36:09;99769.28;;;12.29;100.00
34500;BME280;20745;50.882;6.962;2022-12-29T07:38:36;99776.78;;;12.27;100.00
34500;BME280;20745;50.882;6.962;2022-12-29T07:41:02;99771.56;;;12.26;100.00
34500;BME280;20745;50.882;6.962;2022-12-29T07:43:28;99777.63;;;12.21;100.00
34500;BME280;20745;50.882;6.962;2022-12-29T07:45:55;99767.84;;;12.20;100.00
34500;BME280;20745;50.882;6.962;2022-12-29T07:48:21;99782.88;;;12.16;100.00
34500;BME280;20745;50.882;6.962;2022-12-29T07:50:47;99778.06;;;12.18;100.00
34500;BME280;20745;50.882;6.962;2022-12-29T07:53:14;99791.38;;;12.20;100.00
34500;BME280;20745;50.882;6.962;2022-12-29T07:55:40;99801.19;;;12.21;100.00
34500;BME280;20745;50.882;6.962;2022-12-29T07:58:07;99807.41;;;12.21;100.00
34500;BME280;20745;50.882;6.962;2022-12-29T08:00:33;99806.59;;;12.21;100.00
34500;BME280;20745;50.882;6.962;2022-12-29T08:02:59;99810.75;;;12.23;100.00
34500;BME280;20745;50.882;6.962;2022-12-29T08:05:26;99814.88;;;12.26;100.00
34500;BME280;20745;50.882;6.962;2022-12-29T08:07:52;99809.47;;;12.26;100.00
34500;BME280;20745;50.882;6.962;2022-12-29T08:10:18;99817.59;;;12.26;100.00
34500;BME280;20745;50.882;6.962;2022-12-29T08:12:45;99818.44;;;12.26;100.00
34500;BME280;20745;50.882;6.962;2022-12-29T08:15:11;99819.88;;;12.22;100.00
34500;BME280;20745;50.882;6.962;2022-12-29T08:17:38;99814.94;;;12.19;100.00
34500;BME280;20745;50.882;6.962;2022-12-29T08:20:04;99826.97;;;12.23;100.00
34500;BME280;20745;50.882;6.962;2022-12-29T08:22:31;99821.16;;;12.26;100.00
34500;BME280;20745;50.882;6.962;2022-12-29T08:24:57;99822.81;;;12.27;100.00
34500;BME280;20745;50.882;6.962;2022-12-29T08:27:23;99812.38;;;12.31;100.00
34500;BME280;20745;50.882;6.962;2022-12-29T08:29:50;99827.38;;;12.33;100.00
34500;BME280;20745;50.882;6.962;2022-12-29T08:32:16;99825.25;;;12.35;100.00
34500;BME280;20745;50.882;6.962;2022-12-29T08:35:01;99826.13;;;12.29;100.00
34500;BME280;20745;50.882;6.962;2022-12-29T08:37:48;99815.94;;;12.25;100.00
34500;BME280;20745;50.882;6.962;2022-12-29T08:40:34;99826.56;;;12.20;100.00
34500;BME280;20745;50.882;6.962;2022-12-29T08:43:21;99829.31;;;12.13;100.00
34500;BME280;20745;50.882;6.962;2022-12-29T08:46:08;99834.50;;;12.08;100.00
34500;BME280;20745;50.882;6.962;2022-12-29T08:48:55;99835.34;;;12.09;100.00
34500;BME280;20745;50.882;6.962;2022-12-29T08:51:42;99838.28;;;12.07;100.00
34500;BME280;20745;50.882;6.962;2022-12-29T08:54:29;99846.19;;;12.02;100.00
34500;BME280;20745;50.882;6.962;2022-12-29T08:57:15;99849.53;;;12.04;100.00
34500;BME280;20745;50.882;6.962;2022-12-29T09:00:03;99851.19;;;12.05;100.00
34500;BME280;20745;50.882;6.962;2022-12-29T09:02:50;99857.22;;;12.07;100.00
34500;BME280;20745;50.882;6.962;2022-12-29T09:05:37;99862.81;;;12.12;100.00
34500;BME280;20745;50.882;6.962;2022-12-29T09:08:23;99870.50;;;12.15;100.00
34500;BME280;20745;50.882;6.962;2022-12-29T09:11:13;99867.81;;;12.15;100.00
34500;BME280;20745;50.882;6.962;2022-12-29T09:14:00;99872.78;;;12.18;100.00
34500;BME280;20745;50.882;6.962;2022-12-29T09:16:46;99872.38;;;12.21;100.00
34500;BME280;20745;50.882;6.962;2022-12-29T09:19:52;99879.91;;;12.19;100.00
34500;BME280;20745;50.882;6.962;2022-12-29T09:22:39;99877.41;;;12.18;100.00
34500;BME280;20745;50.882;6.962;2022-12-29T09:25:25;99888.63;;;12.21;100.00
34500;BME280;20745;50.882;6.962;2022-12-29T09:28:12;99891.97;;;12.23;100.00
34500;BME280;20745;50.882;6.962;2022-12-29T09:30:59;99899.88;;;12.25;100.00
34500;BME280;20745;50.882;6.962;2022-12-29T09:33:46;99904.03;;;12.27;100.00
34500;BME280;20745;50.882;6.962;2022-12-29T09:36:33;99905.66;;;12.28;100.00
34500;BME280;20745;50.882;6.962;2022-12-29T09:39:19;99903.38;;;12.32;100.00
34500;BME280;20745;50.882;6.962;2022-12-29T09:45:18;99908.59;;;12.33;100.00
34500;BME280;20745;50.882;6.962;2022-12-29T09:48:13;99907.75;;;12.40;100.00
34500;BME280;20745;50.882;6.962;2022-12-29T09:51:02;99906.69;;;12.41;100.00
34500;BME280;20745;50.882;6.962;2022-12-29T09:53:59;99910.63;;;12.45;100.00
34500;BME280;20745;50.882;6.962;2022-12-29T09:56:47;99916.47;;;12.42;100.00
34500;BME280;20745;50.882;6.962;2022-12-29T09:59:41;99916.25;;;12.43;100.00
34500;BME280;20745;50.882;6.962;2022-12-29T10:02:31;99924.38;;;12.43;100.00
34500;BME280;20745;50.882;6.962;2022-12-29T10:08:10;99922.31;;;12.45;100.00
34500;BME280;20745;50.882;6.962;2022-12-29T10:11:10;99917.53;;;12.41;100.00
34500;BME280;20745;50.882;6.962;2022-12-29T10:17:49;99918.13;;;12.43;100.00
34500;BME280;20745;50.882;6.962;2022-12-29T10:26:09;99905.59;;;12.55;100.00
34500;BME280;20745;50.882;6.962;2022-12-29T10:28:38;99906.03;;;12.58;100.00
34500;BME280;20745;50.882;6.962;2022-12-29T10:31:09;99906.84;;;12.59;100.00
34500;BME280;20745;50.882;6.962;2022-12-29T10:33:40;99899.75;;;12.58;100.00
34500;BME280;20745;50.882;6.962;2022-12-29T10:36:50;99903.53;;;12.57;100.00
34500;BME280;20745;50.882;6.962;2022-12-29T10:42:09;99919.94;;;12.68;100.00
34500;BME280;20745;50.882;6.962;2022-12-29T10:44:40;99917.19;;;12.75;100.00
34500;BME280;20745;50.882;6.962;2022-12-29T10:47:10;99915.53;;;12.74;100.00
34500;BME280;20745;50.882;6.962;2022-12-29T10:49:40;99914.09;;;12.71;100.00
34500;BME280;20745;50.882;6.962;2022-12-29T10:52:07;99910.53;;;12.71;100.00
34500;BME280;20745;50.882;6.962;2022-12-29T10:54:51;99908.44;;;12.73;100.00
34500;BME280;20745;50.882;6.962;2022-12-29T10:59:52;99926.31;;;12.87;100.00
34500;BME280;20745;50.882;6.962;2022-12-29T11:07:30;99929.03;;;12.87;100.00
34500;BME280;20745;50.882;6.962;2022-12-29T11:10:15;99913.38;;;12.89;100.00
34500;BME280;20745;50.882;6.962;2022-12-29T11:12:43;99906.50;;;12.93;100.00
34500;BME280;20745;50.882;6.962;2022-12-29T11:15:20;99925.63;;;12.98;100.00
34500;BME280;20745;50.882;6.962;2022-12-29T11:17:47;99910.44;;;12.97;100.00
34500;BME280;20745;50.882;6.962;2022-12-29T11:20:19;99932.13;;;12.97;100.00
34500;BME280;20745;50.882;6.962;2022-12-29T11:22:46;99929.00;;;13.00;100.00
34500;BME280;20745;50.882;6.962;2022-12-29T11:25:12;99940.66;;;13.00;100.00
34500;BME280;20745;50.882;6.962;2022-12-29T11:27:39;99948.78;;;13.00;100.00
34500;BME280;20745;50.882;6.962;2022-12-29T11:30:24;99944.22;;;13.01;100.00
34500;BME280;20745;50.882;6.962;2022-12-29T11:32:52;99946.28;;;13.05;100.00
34500;BME280;20745;50.882;6.962;2022-12-29T11:35:29;99942.13;;;13.03;100.00
34500;BME280;20745;50.882;6.962;2022-12-29T11:37:56;99947.13;;;12.99;100.00
34500;BME280;20745;50.882;6.962;2022-12-29T11:40:42;99944.59;;;12.98;100.00
34500;BME280;20745;50.882;6.962;2022-12-29T11:43:31;99948.38;;;12.97;100.00
34500;BME280;20745;50.882;6.962;2022-12-29T11:46:22;99962.56;;;12.99;100.00
34500;BME280;20745;50.882;6.962;2022-12-29T11:49:10;99964.25;;;13.00;100.00
34500;BME280;20745;50.882;6.962;2022-12-29T11:51:41;99963.81;;;13.03;100.00
34500;BME280;20745;50.882;6.962;2022-12-29T11:54:09;99968.78;;;13.06;100.00
34500;BME280;20745;50.882;6.962;2022-12-29T11:56:41;99963.78;;;13.09;100.00
34500;BME280;20745;50.882;6.962;2022-12-29T11:59:23;99963.34;;;13.06;100.00
34500;BME280;20745;50.882;6.962;2022-12-29T12:01:50;99969.25;;;13.03;100.00
34500;BME280;20745;50.882;6.962;2022-12-29T12:04:17;99975.69;;;13.02;100.00
34500;BME280;20745;50.882;6.962;2022-12-29T12:09:37;99967.53;;;13.08;100.00
34500;BME280;20745;50.882;6.962;2022-12-29T12:12:07;99965.03;;;13.07;100.00
34500;BME280;20745;50.882;6.962;2022-12-29T12:14:37;99983.38;;;13.05;100.00
34500;BME280;20745;50.882;6.962;2022-12-29T12:17:05;99981.31;;;13.07;100.00
34500;BME280;20745;50.882;6.962;2022-12-29T12:19:38;99985.47;;;13.09;100.00
34500;BME280;20745;50.882;6.962;2022-12-29T12:22:10;99981.72;;;13.04;100.00
34500;BME280;20745;50.882;6.962;2022-12-29T12:29:38;99986.72;;;13.07;100.00
34500;BME280;20745;50.882;6.962;2022-12-29T12:32:11;99980.25;;;13.08;100.00
34500;BME280;20745;50.882;6.962;2022-12-29T12:34:43;99996.72;;;13.13;100.00
34500;BME280;20745;50.882;6.962;2022-12-29T12:44:58;100016.28;;;13.15;100.00
34500;BME280;20745;50.882;6.962;2022-12-29T12:50:14;100016.50;;;13.20;100.00
34500;BME280;20745;50.882;6.962;2022-12-29T12:52:57;100003.75;;;13.20;100.00
34500;BME280;20745;50.882;6.962;2022-12-29T12:58:31;100020.88;;;13.14;100.00
34500;BME280;20745;50.882;6.962;2022-12-29T13:01:46;100027.13;;;13.15;100.00
34500;BME280;20745;50.882;6.962;2022-12-29T13:03:58;100017.13;;;13.15;100.00
34500;BME280;20745;50.882;6.962;2022-12-29T13:24:34;100044.31;;;12.89;100.00
34500;BME280;20745;50.882;6.962;2022-12-29T13:27:12;100052.22;;;12.84;100.00
34500;BME280;20745;50.882;6.962;2022-12-29T13:29:47;100057.25;;;12.81;100.00
34500;BME280;20745;50.882;6.962;2022-12-29T13:37:34;100063.50;;;12.75;100.00
34500;BME280;20745;50.882;6.962;2022-12-29T13:40:12;100048.31;;;12.74;100.00
34500;BME280;20745;50.882;6.962;2022-12-29T13:42:41;100051.00;;;12.74;100.00
34500;BME280;20745;50.882;6.962;2022-12-29T13:45:13;100051.44;;;12.71;100.00
34500;BME280;20745;50.882;6.962;2022-12-29T13:48:05;100050.19;;;12.67;100.00
34500;BME280;20745;50.882;6.962;2022-12-29T13:50:28;100051.44;;;12.64;100.00
34500;BME280;20745;50.882;6.962;2022-12-29T13:53:04;100059.34;;;12.66;100.00
34500;BME280;20745;50.882;6.962;2022-12-29T13:55:35;100058.09;;;12.62;100.00
34500;BME280;20745;50.882;6.962;2022-12-29T13:58:05;100056.44;;;12.61;100.00
34500;BME280;20745;50.882;6.962;2022-12-29T14:00:40;100078.13;;;12.61;100.00
34500;BME280;20745;50.882;6.962;2022-12-29T14:05:39;100078.97;;;12.61;100.00
34500;BME280;20745;50.882;6.962;2022-12-29T14:08:11;100071.47;;;12.57;100.00
34500;BME280;20745;50.882;6.962;2022-12-29T14:10:47;100083.31;;;12.56;100.00
34500;BME280;20745;50.882;6.962;2022-12-29T14:13:15;100090.63;;;12.49;100.00
34500;BME280;20745;50.882;6.962;2022-12-29T14:15:43;100094.38;;;12.48;100.00
34500;BME280;20745;50.882;6.962;2022-12-29T14:18:15;100110.19;;;12.44;100.00
34500;BME280;20745;50.882;6.962;2022-12-29T14:20:59;100111.03;;;12.45;100.00
34500;BME280;20745;50.882;6.962;2022-12-29T14:28:34;100112.06;;;12.04;100.00
34500;BME280;20745;50.882;6.962;2022-12-29T14:31:01;100118.28;;;11.98;100.00
34500;BME280;20745;50.882;6.962;2022-12-29T14:33:32;100119.09;;;11.92;100.00
34500;BME280;20745;50.882;6.962;2022-12-29T14:38:44;100119.69;;;11.81;100.00
34500;BME280;20745;50.882;6.962;2022-12-29T14:41:16;100119.50;;;11.76;100.00
34500;BME280;20745;50.882;6.962;2022-12-29T14:43:57;100119.50;;;11.76;100.00
34500;BME280;20745;50.882;6.962;2022-12-29T14:46:24;100119.69;;;11.81;100.00
34500;BME280;20745;50.882;6.962;2022-12-29T14:48:55;100114.91;;;11.77;100.00
34500;BME280;20745;50.882;6.962;2022-12-29T14:51:28;100112.59;;;11.74;100.00
34500;BME280;20745;50.882;6.962;2022-12-29T14:57:21;100125.06;;;11.68;100.00
34500;BME280;20745;50.882;6.962;2022-12-29T15:00:14;100115.69;;;11.64;100.00
34500;BME280;20745;50.882;6.962;2022-12-29T15:03:06;100110.94;;;11.66;100.00
34500;BME280;20745;50.882;6.962;2022-12-29T15:05:44;100115.06;;;11.62;100.00
34500;BME280;20745;50.882;6.962;2022-12-29T15:08:30;100120.06;;;11.65;100.00
34500;BME280;20745;50.882;6.962;2022-12-29T15:14:38;100119.44;;;11.63;100.00
34500;BME280;20745;50.882;6.962;2022-12-29T15:17:25;100122.28;;;11.55;100.00
34500;BME280;20745;50.882;6.962;2022-12-29T15:20:17;100129.13;;;11.51;100.00